Time;durP1;ratioP1;P1;durP2;ratioP2;P2;SDS_P1;SDS_P2;PMS_P1;PMS_P2;Temp;Humidity;BMP_temperature;BMP_pressure;BME280_temperature;BME280_humidity;BME280_pressure;Samples;Min_cycle;Max_cycle;Signal;HPM_P1;HPM_P2
2021/07/12 00:01:19;;;;;;;85.47;61.93;;;;;;;-144.99;92.98;52248.34;5108124;28;20208;-60
2021/07/12 00:03:46;;;;;;;85.00;62.03;;;;;;;-144.99;92.73;52260.56;5103038;28;20209;-61
2021/07/12 00:06:13;;;;;;;83.18;61.80;;;;;;;-144.99;92.89;52317.66;5101870;28;20224;-61
2021/07/12 00:08:42;;;;;;;84.10;61.77;;;;;;;-144.99;92.86;52276.88;5103141;28;20216;-62
2021/07/12 00:11:09;;;;;;;86.27;62.60;;;;;;;-144.99;92.90;52223.88;5106283;28;20238;-60
2021/07/12 00:13:36;;;;;;;86.40;62.33;;;;;;;-144.99;92.93;52280.97;5097617;28;20700;-60
2021/07/12 00:16:04;;;;;;;84.77;61.70;;;;;;;-144.99;92.67;52248.34;5106301;28;20223;-62
2021/07/12 00:18:30;;;;;;;86.40;62.57;;;;;;;-144.99;92.03;52276.88;5103882;28;20590;-62
2021/07/12 00:20:58;;;;;;;82.67;61.00;;;;;;;-144.99;92.14;52248.34;5102882;28;20247;-62
2021/07/12 00:23:25;;;;;;;84.90;62.20;;;;;;;-144.99;91.84;52268.72;5100555;28;20672;-62
2021/07/12 00:25:52;;;;;;;81.97;61.37;;;;;;;-144.99;91.86;52293.19;5101794;28;20208;-61
2021/07/12 00:28:18;;;;;;;80.70;60.80;;;;;;;-144.99;91.95;52242.22;5101863;28;20203;-61
2021/07/12 00:30:45;;;;;;;82.57;61.10;;;;;;;-144.99;91.88;52268.72;5103508;28;20240;-59
2021/07/12 00:33:11;;;;;;;82.63;61.53;;;;;;;-144.99;91.96;52276.88;5105438;28;20212;-58
2021/07/12 00:35:38;;;;;;;84.70;62.10;;;;;;;-144.99;92.09;52256.50;5105639;28;20207;-59
2021/07/12 00:38:06;;;;;;;82.60;61.43;;;;;;;-144.99;92.04;52297.25;5105293;28;20219;-58
2021/07/12 00:40:32;;;;;;;75.28;59.38;;;;;;;-144.99;92.14;52280.97;5105778;28;20245;-59
2021/07/12 00:42:59;;;;;;;78.10;60.17;;;;;;;-144.99;92.14;52264.66;5103700;28;20563;-59
2021/07/12 00:45:28;;;;;;;71.80;58.03;;;;;;;-144.99;92.01;52256.50;5103255;28;20200;-58
2021/07/12 00:47:55;;;;;;;77.73;59.93;;;;;;;-144.99;91.99;52264.66;5101537;28;20224;-58
2021/07/12 00:50:23;;;;;;;73.15;58.40;;;;;;;-144.99;91.96;52280.97;5103448;28;20236;-57
2021/07/12 00:52:51;;;;;;;68.85;57.20;;;;;;;-144.99;91.90;52272.81;5101050;28;20211;-58
2021/07/12 00:55:22;;;;;;;68.68;57.63;;;;;;;-144.99;91.93;52256.50;5097852;28;20204;-58
2021/07/12 00:57:49;;;;;;;69.13;57.40;;;;;;;-144.99;91.95;52305.41;5100521;28;20300;-58
2021/07/12 01:00:18;;;;;;;74.03;58.83;;;;;;;-144.99;91.93;52256.50;5099450;28;20589;-57
2021/07/12 01:02:44;;;;;;;75.00;59.07;;;;;;;-144.99;91.88;52252.44;5104153;28;20247;-57
2021/07/12 01:05:16;;;;;;;72.78;58.28;;;;;;;-144.99;91.92;52211.66;5103903;28;20216;-58
2021/07/12 01:07:44;;;;;;;68.50;56.92;;;;;;;-144.99;91.93;52266.69;5101405;28;20256;-59
2021/07/12 01:10:12;;;;;;;72.18;58.15;;;;;;;-144.99;91.84;52289.13;5104483;28;20223;-58
2021/07/12 01:12:46;;;;;;;70.65;57.58;;;;;;;-144.99;91.86;52266.69;5100851;28;20367;-58
2021/07/12 01:15:15;;;;;;;69.47;57.20;;;;;;;-144.99;91.53;52276.88;5105269;28;20210;-59
2021/07/12 01:17:54;;;;;;;69.82;57.33;;;;;;;-144.99;91.61;52236.13;5099283;28;20247;-59
2021/07/12 01:20:59;;;;;;;71.82;57.97;;;;;;;-144.99;91.43;52227.97;5101668;28;20224;-59
2021/07/12 01:23:36;;;;;;;70.25;57.53;;;;;;;-144.99;91.49;52256.50;5071662;28;20643;-60
2021/07/12 01:26:33;;;;;;;71.88;57.95;;;;;;;-144.99;91.61;52272.81;5104537;28;20593;-58
2021/07/12 01:29:21;;;;;;;73.77;58.63;;;;;;;-144.99;91.81;52297.25;5100966;28;20625;-59
2021/07/12 01:32:27;;;;;;;72.78;58.15;;;;;;;-144.99;91.53;52248.34;5105031;28;20223;-59
2021/07/12 01:35:03;;;;;;;72.77;58.20;;;;;;;-144.99;91.77;52234.09;5079117;28;20218;-58
2021/07/12 01:37:37;;;;;;;73.83;58.33;;;;;;;-144.99;91.35;52280.97;5101696;28;20227;-58
2021/07/12 01:40:08;;;;;;;71.97;57.72;;;;;;;-144.99;91.53;52266.69;5102590;28;20238;-57
2021/07/12 01:42:42;;;;;;;72.65;57.92;;;;;;;-144.99;91.50;52289.13;5084134;28;20589;-58
2021/07/12 01:45:12;;;;;;;73.03;58.30;;;;;;;-144.99;91.77;52268.72;5105814;28;20632;-58
2021/07/12 01:47:44;;;;;;;74.33;58.40;;;;;;;-144.99;91.67;52325.81;5106303;28;20228;-58
2021/07/12 01:50:23;;;;;;;71.45;57.33;;;;;;;-144.99;91.57;52280.97;5106648;28;20989;-56
2021/07/12 01:53:02;;;;;;;74.70;58.17;;;;;;;-144.99;91.75;52252.44;5103944;28;20224;-62
2021/07/12 01:55:36;;;;;;;73.67;57.43;;;;;;;-144.99;91.72;52276.88;5107294;28;20206;-62
2021/07/12 01:58:10;;;;;;;72.73;56.93;;;;;;;-144.99;91.98;52260.56;5104255;28;20299;-61
2021/07/12 02:00:37;;;;;;;71.63;56.13;;;;;;;-144.99;92.12;52325.81;5106468;28;20248;-61
2021/07/12 02:03:04;;;;;;;69.53;55.30;;;;;;;-144.99;92.07;52293.19;5108380;28;20207;-60
2021/07/12 02:05:35;;;;;;;69.25;55.25;;;;;;;-144.99;92.17;52295.22;5109205;28;20211;-60
2021/07/12 02:08:03;;;;;;;68.17;54.83;;;;;;;-144.99;92.54;52309.50;5107077;28;20701;-59
2021/07/12 02:10:32;;;;;;;67.43;54.60;;;;;;;-144.99;92.59;52309.50;5106854;28;20644;-60
2021/07/12 02:13:00;;;;;;;66.07;54.07;;;;;;;-144.99;92.46;52276.88;5105230;28;20216;-59
2021/07/12 02:15:28;;;;;;;66.00;53.80;;;;;;;-144.99;92.45;52313.56;5117869;22;20228;-59
2021/07/12 02:17:55;;;;;;;66.40;54.03;;;;;;;-144.99;92.58;52305.41;5103957;28;20215;-59
2021/07/12 02:20:25;;;;;;;64.50;51.97;;;;;;;-144.99;92.80;52285.03;5100276;28;20236;-60
2021/07/12 02:22:56;;;;;;;60.35;50.03;;;;;;;-144.99;92.82;52285.03;5092948;28;20211;-59
2021/07/12 02:25:23;;;;;;;60.92;50.38;;;;;;;-144.99;92.91;52293.19;5090267;28;20201;-59
2021/07/12 02:27:50;;;;;;;58.72;49.05;;;;;;;-144.99;93.29;52260.56;5087986;28;20460;-59
2021/07/12 02:30:17;;;;;;;60.60;51.78;;;;;;;-144.99;93.46;52325.81;5091062;28;20246;-58
2021/07/12 02:32:47;;;;;;;58.83;51.05;;;;;;;-144.99;93.37;52297.25;5087992;28;20218;-58
2021/07/12 02:35:15;;;;;;;59.70;51.22;;;;;;;-144.99;93.41;52256.50;5090917;28;20212;-58
2021/07/12 02:37:46;;;;;;;46.80;41.75;;;;;;;-144.99;93.45;52313.56;5092566;28;21401;-58
2021/07/12 02:40:18;;;;;;;51.53;45.75;;;;;;;-144.99;93.30;52283.00;5090084;28;20228;-59
2021/07/12 02:42:48;;;;;;;54.78;47.78;;;;;;;-144.99;93.22;52297.25;5084302;28;20209;-59
2021/07/12 02:45:16;;;;;;;52.95;46.92;;;;;;;-144.99;93.40;52268.72;5088877;28;20212;-59
2021/07/12 02:47:43;;;;;;;53.78;47.67;;;;;;;-144.99;93.26;52293.19;5090765;28;20217;-59
2021/07/12 02:50:11;;;;;;;53.97;47.85;;;;;;;-144.99;93.01;52309.50;5088611;28;20259;-61
2021/07/12 02:52:43;;;;;;;51.42;45.83;;;;;;;-144.99;92.92;52307.47;5087649;28;20478;-61
2021/07/12 02:55:11;;;;;;;55.73;48.63;;;;;;;-144.99;92.96;52338.03;5088194;28;20300;-61
2021/07/12 02:57:39;;;;;;;55.88;49.00;;;;;;;-144.99;93.09;52258.53;5086385;28;20749;-61
2021/07/12 03:00:08;;;;;;;60.65;51.45;;;;;;;-144.99;93.43;52297.25;5089974;28;20313;-62
2021/07/12 03:02:35;;;;;;;61.40;51.97;;;;;;;-144.99;93.46;52293.19;5096329;28;20231;-62
2021/07/12 03:05:01;;;;;;;57.77;50.43;;;;;;;-144.99;93.63;52325.81;5091467;28;20239;-62
2021/07/12 03:07:33;;;;;;;53.30;47.60;;;;;;;-144.99;94.00;52325.81;5089040;28;20220;-62
2021/07/12 03:10:01;;;;;;;;;;;;;;;-144.99;93.89;52301.34;5089144;28;20241;-62
2021/07/12 03:12:35;;;;;;;100.85;66.82;;;;;;;-144.99;94.20;52303.38;5088690;28;24507;-61
2021/07/12 03:15:09;;;;;;;48.60;43.50;;;;;;;-144.99;94.30;52321.72;5086934;28;20224;-61
2021/07/12 03:17:40;;;;;;;60.72;51.90;;;;;;;-144.99;94.39;52305.41;5085423;28;20210;-61
2021/07/12 03:20:08;;;;;;;66.93;54.47;;;;;;;-144.99;94.26;52309.50;5089555;28;20239;-61
2021/07/12 03:22:36;;;;;;;71.27;56.53;;;;;;;-144.99;94.39;52285.03;5088205;28;20212;-61
2021/07/12 03:25:06;;;;;;;72.13;56.67;;;;;;;-144.99;94.55;52264.66;5086814;28;20372;-61
2021/07/12 03:27:33;;;;;;;70.73;56.30;;;;;;;-144.99;94.64;52297.25;5092286;28;20243;-60
2021/07/12 03:30:02;;;;;;;73.93;57.37;;;;;;;-144.99;94.62;52289.13;5089834;28;20240;-60
2021/07/12 03:32:32;;;;;;;68.70;55.07;;;;;;;-144.99;94.72;52309.50;5092648;28;20208;-61
2021/07/12 03:35:01;;;;;;;61.28;51.85;;;;;;;-144.99;94.63;52301.34;5092440;28;20780;-61
2021/07/12 03:37:27;;;;;;;71.93;57.03;;;;;;;-144.99;94.64;52311.53;5090835;28;20213;-61
2021/07/12 03:39:55;;;;;;;72.60;57.33;;;;;;;-144.99;94.76;52336.00;5088996;28;20224;-61
2021/07/12 03:42:22;;;;;;;67.30;54.87;;;;;;;-144.99;94.90;52285.03;5090335;28;20655;-61
2021/07/12 03:44:49;;;;;;;66.63;54.50;;;;;;;-144.99;94.71;52333.94;5088888;28;20217;-61
2021/07/12 03:47:27;;;;;;;70.70;56.33;;;;;;;-144.99;94.81;52293.19;5090132;28;20221;-61
2021/07/12 03:50:03;;;;;;;73.37;57.40;;;;;;;-144.99;94.63;52280.97;5086740;28;20224;-61
2021/07/12 03:52:34;;;;;;;69.70;56.30;;;;;;;-144.99;94.30;52289.13;5091067;28;20208;-60
2021/07/12 03:55:00;;;;;;;65.87;54.40;;;;;;;-144.99;94.25;52289.13;5093058;28;20251;-60
2021/07/12 03:57:27;;;;;;;66.43;54.77;;;;;;;-144.99;94.49;52299.31;5090353;28;20237;-60
2021/07/12 03:59:53;;;;;;;62.72;52.85;;;;;;;-144.99;94.16;52297.25;5086974;28;20232;-59
2021/07/12 04:02:20;;;;;;;61.35;52.13;;;;;;;-144.99;94.45;52329.88;5089946;28;20208;-59
2021/07/12 04:04:47;;;;;;;64.17;53.63;;;;;;;-144.99;93.99;52285.03;5087009;28;20209;-60
2021/07/12 04:07:14;;;;;;;64.07;53.37;;;;;;;-144.99;94.02;52280.97;5089806;28;20231;-60
2021/07/12 04:09:41;;;;;;;64.60;53.80;;;;;;;-144.99;94.01;52283.00;5091542;28;20228;-60
2021/07/12 04:12:08;;;;;;;60.92;51.88;;;;;;;-144.99;93.78;52264.66;5085959;28;20214;-60
2021/07/12 04:14:35;;;;;;;68.97;56.03;;;;;;;-144.99;93.66;52244.28;5088920;28;20215;-61
2021/07/12 04:17:01;;;;;;;68.43;55.80;;;;;;;-144.99;93.43;52321.72;5087499;28;20739;-59
2021/07/12 04:19:28;;;;;;;68.47;55.77;;;;;;;-144.99;93.30;52262.63;5087563;28;20598;-60
2021/07/12 04:21:54;;;;;;;68.37;55.67;;;;;;;-144.99;93.39;52297.25;5087981;28;20205;-60
2021/07/12 04:24:22;;;;;;;67.67;55.20;;;;;;;-144.99;93.13;52289.13;5090971;28;20674;-59
2021/07/12 04:26:49;;;;;;;66.43;54.77;;;;;;;-144.99;93.03;52285.03;5092747;28;20670;-61
2021/07/12 04:29:15;;;;;;;63.63;53.53;;;;;;;-144.99;92.82;52272.81;5089498;28;20239;-60
2021/07/12 04:31:42;;;;;;;56.78;50.30;;;;;;;-144.99;92.60;52336.00;5091720;28;20215;-60
2021/07/12 04:34:11;;;;;;;55.60;49.50;;;;;;;-144.99;92.31;52276.88;5088718;28;20845;-60
2021/07/12 04:36:38;;;;;;;52.50;46.90;;;;;;;-144.99;92.00;52285.03;5087339;28;20211;-59
2021/07/12 04:39:04;;;;;;;52.72;47.08;;;;;;;-144.99;91.96;52309.50;5085430;28;20200;-59
2021/07/12 04:41:32;;;;;;;49.38;44.17;;;;;;;-144.99;91.25;52260.56;5086351;28;20467;-60
2021/07/12 04:43:59;;;;;;;51.05;45.63;;;;;;;-144.99;91.51;52260.56;5089027;28;20212;-61
2021/07/12 04:46:25;;;;;;;56.60;50.40;;;;;;;-144.99;91.19;52297.25;5092670;28;20209;-64
2021/07/12 04:48:52;;;;;;;56.22;50.20;;;;;;;-144.99;91.09;52276.88;5089272;28;20227;-64
2021/07/12 04:51:18;;;;;;;56.10;50.13;;;;;;;-144.99;90.55;52276.88;5088251;28;20219;-64
2021/07/12 04:53:45;;;;;;;56.85;50.85;;;;;;;-144.99;90.18;52264.66;5093261;28;20211;-64
2021/07/12 04:56:11;;;;;;;58.70;52.28;;;;;;;-144.99;89.06;52238.16;5092432;28;20582;-65
2021/07/12 04:58:44;;;;;;;58.92;52.60;;;;;;;-144.99;88.66;52264.66;5084044;28;20213;-64
2021/07/12 05:01:11;;;;;;;60.55;53.38;;;;;;;-144.99;88.18;52244.28;5086746;28;20640;-60
2021/07/12 05:03:38;;;;;;;61.30;53.42;;;;;;;-144.99;87.93;52256.50;4383473;28;10000760;-59
2021/07/12 05:06:05;;;;;;;58.25;52.10;;;;;;;-144.99;87.71;52250.38;4738335;28;9999772;-59
2021/07/12 05:08:31;;;;;;;60.90;54.15;;;;;;;-144.99;86.77;52240.19;5085405;28;20651;-59
2021/07/12 05:10:58;;;;;;;60.92;54.22;;;;;;;-144.99;86.67;52285.03;5086138;28;20244;-59
2021/07/12 05:13:25;;;;;;;61.57;54.77;;;;;;;-144.99;86.69;52264.66;5085960;28;20223;-59
2021/07/12 05:15:53;;;;;;;62.93;55.90;;;;;;;-144.99;85.98;52276.88;5085509;28;20639;-59
2021/07/12 05:18:19;;;;;;;58.83;52.67;;;;;;;-144.99;85.96;52285.03;5083659;28;20216;-59
2021/07/12 05:20:46;;;;;;;58.53;52.42;;;;;;;-144.99;86.00;52305.41;5085507;28;20241;-60
2021/07/12 05:23:12;;;;;;;58.35;52.28;;;;;;;-144.99;85.85;52264.66;5085919;28;20211;-59
2021/07/12 05:25:39;;;;;;;60.28;53.78;;;;;;;-144.99;85.32;52264.66;5086111;28;20217;-59
2021/07/12 05:28:06;;;;;;;59.53;53.13;;;;;;;-144.99;85.59;52289.13;5085944;28;20447;-59
2021/07/12 05:30:34;;;;;;;59.67;53.27;;;;;;;-144.99;85.26;52227.97;5086126;28;20250;-58
2021/07/12 05:33:02;;;;;;;60.63;54.10;;;;;;;-144.99;84.77;52244.28;5085904;28;20307;-58
2021/07/12 05:35:30;;;;;;;63.27;55.50;;;;;;;-144.99;84.62;52280.97;5085802;28;20219;-58
2021/07/12 05:37:57;;;;;;;62.80;55.60;;;;;;;-144.99;84.45;52285.03;5086070;28;20216;-59
2021/07/12 05:40:23;;;;;;;62.38;55.10;;;;;;;-144.99;84.62;52266.69;5085424;28;20238;-59
2021/07/12 05:42:50;;;;;;;49.70;44.70;;;;;;;-144.99;84.40;52236.13;5086070;28;20221;-59
2021/07/12 05:45:16;;;;;;;;;;;;;;;-144.99;84.23;52262.63;5086164;28;20585;-59
2021/07/12 05:47:43;;;;;;;80.97;62.33;;;;;;;-144.99;83.87;52270.78;5083216;28;25077;-58
2021/07/12 05:50:14;;;;;;;66.53;57.78;;;;;;;-144.99;83.04;52272.81;5085225;28;20662;-58
2021/07/12 05:52:40;;;;;;;77.38;61.58;;;;;;;-144.99;83.07;52256.50;5083070;28;20256;-59
2021/07/12 05:55:08;;;;;;;89.57;65.67;;;;;;;-144.99;83.61;52268.72;5085105;28;20216;-59
2021/07/12 05:57:35;;;;;;;97.90;67.90;;;;;;;-144.99;83.31;52256.50;5084428;28;20204;-58
2021/07/12 06:00:02;;;;;;;94.40;66.40;;;;;;;-144.99;83.04;52248.34;5085186;28;20709;-59
2021/07/12 06:02:28;;;;;;;94.37;66.50;;;;;;;-144.99;82.55;52262.63;5085105;28;20231;-59
2021/07/12 06:04:55;;;;;;;97.80;67.73;;;;;;;-144.99;82.80;52276.88;5085143;28;20598;-59
2021/07/12 06:07:23;;;;;;;92.57;65.70;;;;;;;-144.99;82.97;52256.50;5084966;28;20213;-59
2021/07/12 06:09:49;;;;;;;92.33;65.60;;;;;;;-144.99;82.54;52240.19;5085583;28;20294;-59
2021/07/12 06:12:16;;;;;;;87.70;64.10;;;;;;;-144.99;83.50;52248.34;5086802;28;20208;-59
2021/07/12 06:14:42;;;;;;;92.70;65.27;;;;;;;-144.99;82.64;52252.44;5085792;28;20211;-59
2021/07/12 06:17:09;;;;;;;90.27;64.60;;;;;;;-144.99;82.73;52227.97;5085161;28;20238;-59
2021/07/12 06:19:36;;;;;;;89.93;64.37;;;;;;;-144.99;81.87;52254.47;5084214;28;20322;-59
2021/07/12 06:22:03;;;;;;;86.43;63.30;;;;;;;-144.99;82.90;52264.66;5086269;28;20211;-59
2021/07/12 06:24:31;;;;;;;87.87;63.43;;;;;;;-144.99;82.35;52236.13;5085581;28;20219;-58
2021/07/12 06:26:58;;;;;;;89.67;63.97;;;;;;;-144.99;83.52;52244.28;5085512;28;20227;-60
2021/07/12 06:29:25;;;;;;;86.03;62.73;;;;;;;-144.99;82.00;52266.69;5083782;28;20292;-60
2021/07/12 06:31:52;;;;;;;85.83;62.63;;;;;;;-144.99;82.27;52293.19;5087098;28;20224;-60
2021/07/12 06:34:19;;;;;;;87.53;62.90;;;;;;;-144.99;82.23;52244.28;5087991;28;20658;-60
2021/07/12 06:36:45;;;;;;;87.87;63.63;;;;;;;-144.99;81.53;52211.66;5089381;28;20250;-60
2021/07/12 06:39:12;;;;;;;86.43;63.07;;;;;;;-144.99;81.25;52268.72;5088281;28;20232;-60
2021/07/12 06:41:40;;;;;;;84.63;62.47;;;;;;;-144.99;80.89;52199.44;5089233;28;20216;-60
2021/07/12 06:44:06;;;;;;;81.63;61.60;;;;;;;-144.99;80.70;52219.81;5088264;28;20228;-60
2021/07/12 06:46:33;;;;;;;82.07;61.50;;;;;;;-144.99;80.91;52260.56;5089102;28;20216;-60
2021/07/12 06:49:00;;;;;;;83.90;62.07;;;;;;;-144.99;79.94;52256.50;5088011;28;20252;-60
2021/07/12 06:51:26;;;;;;;81.57;61.53;;;;;;;-144.99;79.90;52252.44;5088488;28;20209;-59
2021/07/12 06:53:54;;;;;;;82.80;62.43;;;;;;;-144.99;78.68;52215.75;5088438;28;20231;-59
2021/07/12 06:56:21;;;;;;;81.03;61.50;;;;;;;-144.99;77.00;52219.81;5088489;28;20212;-59
2021/07/12 06:58:49;;;;;;;83.40;62.40;;;;;;;-144.99;77.39;52264.66;5088158;28;20223;-59
2021/07/12 07:01:16;;;;;;;79.97;61.07;;;;;;;-144.99;77.18;52219.81;5088602;28;20212;-59
2021/07/12 07:03:42;;;;;;;86.63;63.63;;;;;;;-144.99;76.49;52221.84;5090254;28;20302;-59
2021/07/12 07:06:09;;;;;;;86.43;63.60;;;;;;;-144.99;75.78;52227.97;5090155;28;20216;-60
2021/07/12 07:08:36;;;;;;;88.57;64.30;;;;;;;-144.99;75.60;52219.81;5088418;28;20233;-59
2021/07/12 07:11:03;;;;;;;87.53;63.70;;;;;;;-144.99;76.31;52203.50;5088453;28;20244;-60
2021/07/12 07:13:29;;;;;;;85.80;63.67;;;;;;;-144.99;75.42;52223.88;5087435;28;20231;-60
2021/07/12 07:15:57;;;;;;;83.47;62.70;;;;;;;-144.99;75.06;52236.13;5089275;28;20220;-60
2021/07/12 07:18:24;;;;;;;83.17;62.70;;;;;;;-144.99;74.83;52232.03;5086559;28;20596;-60
2021/07/12 07:20:51;;;;;;;81.53;61.97;;;;;;;-144.99;74.84;52264.66;5087640;28;20813;-59
2021/07/12 07:23:18;;;;;;;82.33;62.27;;;;;;;-144.99;75.24;52203.50;5087783;28;20209;-60
2021/07/12 07:25:44;;;;;;;82.10;62.40;;;;;;;-144.99;74.46;52199.44;5086937;28;20207;-60
2021/07/12 07:28:11;;;;;;;81.77;62.17;;;;;;;-144.99;73.24;52195.34;5087584;28;20201;-60
2021/07/12 07:30:39;;;;;;;83.27;63.10;;;;;;;-144.99;73.24;52162.75;5082061;28;20233;-59
2021/07/12 07:33:07;;;;;;;81.83;62.30;;;;;;;-144.99;71.81;52185.16;5086401;28;20213;-59
2021/07/12 07:35:34;;;;;;;82.97;62.80;;;;;;;-144.99;71.25;52191.28;5087355;28;20594;-60
2021/07/12 07:38:00;;;;;;;84.97;63.93;;;;;;;-144.99;70.51;52197.41;5088210;28;20217;-60
2021/07/12 07:40:27;;;;;;;82.03;62.97;;;;;;;-144.99;69.20;52166.81;5086936;28;20667;-60
2021/07/12 07:42:54;;;;;;;86.47;64.77;;;;;;;-144.99;68.43;52203.50;5086763;28;20228;-61
2021/07/12 07:45:20;;;;;;;102.23;69.87;;;;;;;-144.99;66.98;52148.47;5087663;28;20877;-59
2021/07/12 07:47:48;;;;;;;110.73;71.90;;;;;;;-144.99;67.53;52179.06;5088177;28;20605;-59
2021/07/12 07:50:16;;;;;;;116.30;72.87;;;;;;;-144.99;68.15;52174.97;5087603;28;20246;-59
2021/07/12 07:52:43;;;;;;;116.57;72.60;;;;;;;-144.99;66.77;52166.81;5085946;28;20259;-60
2021/07/12 07:55:12;;;;;;;118.60;73.80;;;;;;;-144.99;65.41;52174.97;5088369;28;20255;-63
2021/07/12 07:57:39;;;;;;;119.97;74.10;;;;;;;-144.99;64.50;52156.63;5089570;28;20207;-61
2021/07/12 08:00:08;;;;;;;123.07;74.80;;;;;;;-144.99;64.29;52162.75;5087164;28;20231;-60
2021/07/12 08:02:35;;;;;;;119.60;73.23;;;;;;;-144.99;64.10;52197.41;5087297;28;20685;-60
2021/07/12 08:05:01;;;;;;;126.00;74.27;;;;;;;-144.99;63.91;52158.66;5081060;28;20219;-60
2021/07/12 08:07:29;;;;;;;132.70;76.67;;;;;;;-144.99;63.49;52138.28;5088316;28;20215;-60
2021/07/12 08:09:56;;;;;;;127.27;75.23;;;;;;;-144.99;62.55;52130.13;5089068;28;20236;-60
2021/07/12 08:12:22;;;;;;;126.87;74.67;;;;;;;-144.99;61.95;52150.53;5087228;28;20215;-60
2021/07/12 08:14:49;;;;;;;133.07;76.43;;;;;;;-144.99;63.16;52174.97;5087313;28;20211;-60
2021/07/12 08:17:15;;;;;;;132.90;76.47;;;;;;;-144.99;65.24;52215.75;5084916;28;20212;-61
2021/07/12 08:19:42;;;;;;;134.43;76.37;;;;;;;-144.99;65.68;52199.44;5087359;28;20227;-60
2021/07/12 08:22:09;;;;;;;130.63;75.50;;;;;;;-144.99;67.01;52183.13;5086995;28;20219;-59
2021/07/12 08:24:37;;;;;;;133.77;76.67;;;;;;;-144.99;66.74;52211.66;5087121;28;20211;-60
2021/07/12 08:27:04;;;;;;;134.83;76.47;;;;;;;-144.99;65.84;52154.59;5087984;28;20215;-60
2021/07/12 08:29:31;;;;;;;131.70;75.53;;;;;;;-144.99;64.92;52168.84;5088084;28;20261;-60
2021/07/12 08:31:58;;;;;;;130.67;75.37;;;;;;;-144.99;64.32;52146.44;5088666;28;20218;-59
2021/07/12 08:34:24;;;;;;;131.07;75.47;;;;;;;-144.99;62.67;52119.94;5086613;28;20215;-60
2021/07/12 08:36:51;;;;;;;130.00;75.43;;;;;;;-144.99;63.22;52113.84;5086604;28;20272;-61
2021/07/12 08:39:18;;;;;;;127.90;74.63;;;;;;;-144.99;62.81;52140.31;5082494;28;20734;-61
2021/07/12 08:41:46;;;;;;;130.50;75.60;;;;;;;-144.99;61.54;52099.56;5089899;28;20337;-62
2021/07/12 08:44:13;;;;;;;128.97;75.47;;;;;;;-144.99;61.76;52156.63;5085846;28;20568;-59
2021/07/12 08:46:40;;;;;;;126.73;74.90;;;;;;;-144.99;61.15;52115.88;5086758;28;20215;-61
2021/07/12 08:49:06;;;;;;;128.67;75.50;;;;;;;-144.99;59.18;52130.13;5086245;28;20598;-60
2021/07/12 08:51:33;;;;;;;126.93;74.17;;;;;;;-144.99;60.10;52170.91;5086910;28;20633;-64
2021/07/12 08:53:59;;;;;;;126.00;74.00;;;;;;;-144.99;60.23;52179.06;5087865;28;20219;-60
2021/07/12 08:56:26;;;;;;;126.90;74.70;;;;;;;-144.99;60.84;52130.13;5086180;28;20703;-60
2021/07/12 08:58:55;;;;;;;126.93;75.10;;;;;;;-144.99;61.45;52166.81;5086545;28;20496;-61
2021/07/12 09:01:21;;;;;;;126.73;74.97;;;;;;;-144.99;60.86;52185.16;5086627;28;20561;-61
2021/07/12 09:03:51;;;;;;;124.13;73.37;;;;;;;-144.99;60.70;52126.06;5086259;28;20218;-60
2021/07/12 09:06:20;;;;;;;122.43;72.67;;;;;;;-144.99;61.06;52179.06;5086784;28;20223;-60
2021/07/12 09:08:51;;;;;;;125.23;74.20;;;;;;;-144.99;61.26;52146.44;5086969;28;20235;-62
2021/07/12 09:11:21;;;;;;;122.83;73.13;;;;;;;-144.99;60.96;52119.94;5087132;28;20338;-61
2021/07/12 09:14:08;;;;;;;123.33;73.90;;;;;;;-144.99;61.05;52146.44;5085775;28;20219;-60
2021/07/12 09:16:46;;;;;;;119.30;71.60;;;;;;;-144.99;59.77;52138.28;5085595;28;20243;-60
2021/07/12 09:19:32;;;;;;;118.33;71.83;;;;;;;-144.99;59.26;52146.44;5085457;28;20225;-60
2021/07/12 09:22:01;;;;;;;117.90;72.50;;;;;;;-144.99;59.46;52113.84;5085931;28;20757;-60
2021/07/12 09:24:33;;;;;;;116.50;72.17;;;;;;;-144.99;58.45;52087.34;5084960;28;20211;-60
2021/07/12 09:27:12;;;;;;;114.93;71.60;;;;;;;-144.99;57.82;52089.38;5085835;28;20594;-60
2021/07/12 09:29:40;;;;;;;115.80;71.67;;;;;;;-144.99;56.18;52060.84;5085475;28;20321;-60
2021/07/12 09:32:12;;;;;;;111.07;70.63;;;;;;;-144.99;55.21;52081.22;5085363;28;20664;-60
2021/07/12 09:34:39;;;;;;;112.00;71.30;;;;;;;-144.99;54.38;52069.00;5085130;28;20669;-60
2021/07/12 09:37:08;;;;;;;110.37;70.70;;;;;;;-144.99;53.37;52073.06;5085960;28;20586;-60
2021/07/12 09:39:37;;;;;;;115.57;71.80;;;;;;;-144.99;54.63;52077.16;5085788;28;20238;-60
2021/07/12 09:42:06;;;;;;;117.70;72.43;;;;;;;-144.99;54.94;52097.53;5085863;28;20218;-60
2021/07/12 09:44:34;;;;;;;121.10;72.87;;;;;;;-144.99;54.75;52107.72;5085045;28;20218;-60
2021/07/12 09:47:08;;;;;;;118.97;72.43;;;;;;;-144.99;54.97;52081.22;5083614;28;20380;-60
2021/07/12 09:49:36;;;;;;;123.87;73.30;;;;;;;-144.99;54.06;52109.75;5085106;28;20239;-60
2021/07/12 09:52:06;;;;;;;122.37;73.23;;;;;;;-144.99;53.61;52069.00;5083611;28;20218;-61
2021/07/12 09:54:35;;;;;;;123.50;73.90;;;;;;;-144.99;53.13;52087.34;5085860;28;20394;-62
2021/07/12 09:57:05;;;;;;;126.13;74.47;;;;;;;-144.99;53.41;52105.69;5085171;28;20261;-61
2021/07/12 09:59:33;;;;;;;126.23;74.87;;;;;;;-144.99;52.63;52101.59;5085743;28;20288;-61
2021/07/12 10:01:59;;;;;;;127.93;74.93;;;;;;;-144.99;52.80;52101.59;5086191;28;20394;-61
2021/07/12 10:04:26;;;;;;;125.63;74.50;;;;;;;-144.99;52.17;52089.38;5085483;28;20215;-62
2021/07/12 10:06:55;;;;;;;122.97;73.63;;;;;;;-144.99;51.83;52093.44;5088273;28;20207;-61
2021/07/12 10:09:23;;;;;;;124.10;74.23;;;;;;;-144.99;52.39;52093.44;5089662;28;20857;-61
2021/07/12 10:11:50;;;;;;;124.97;74.07;;;;;;;-144.99;52.13;52097.53;5090015;28;20207;-61
2021/07/12 10:14:19;;;;;;;122.23;73.80;;;;;;;-144.99;52.24;52073.06;5089315;28;20594;-61
2021/07/12 10:16:45;;;;;;;122.07;73.47;;;;;;;-144.99;52.80;52081.22;5088730;28;20243;-61
2021/07/12 10:19:12;;;;;;;120.87;73.50;;;;;;;-144.99;51.73;52052.69;5088429;28;20231;-61
2021/07/12 10:21:41;;;;;;;121.17;73.60;;;;;;;-144.99;52.43;52113.84;5089599;28;20219;-61
2021/07/12 10:24:10;;;;;;;118.97;73.07;;;;;;;-144.99;52.97;52121.97;5088953;28;20226;-62
2021/07/12 10:26:45;;;;;;;118.00;71.70;;;;;;;-144.99;53.17;52130.13;5088869;28;20579;-62
2021/07/12 10:29:12;;;;;;;118.03;72.73;;;;;;;-144.99;53.32;52119.94;5069881;28;20254;-61
2021/07/12 10:32:13;;;;;;;115.80;72.27;;;;;;;-144.99;53.54;52119.94;5083265;28;20448;-61
2021/07/12 10:34:43;;;;;;;113.03;71.63;;;;;;;-144.99;52.59;52150.53;5081415;28;20537;-59
2021/07/12 10:37:18;;;;;;;111.50;71.10;;;;;;;-144.99;53.92;52130.13;5088351;28;20577;-60
2021/07/12 10:40:13;;;;;;;110.93;70.90;;;;;;;-144.99;53.80;52158.66;5088422;28;20231;-60
2021/07/12 10:42:56;;;;;;;110.23;70.60;;;;;;;-144.99;54.39;52140.31;5088243;28;20212;-60
2021/07/12 10:45:38;;;;;;;107.97;70.13;;;;;;;-144.99;55.40;52097.53;5089307;28;20215;-61
2021/07/12 10:48:06;;;;;;;105.37;69.53;;;;;;;-144.99;54.40;52166.81;5088230;28;20242;-60
2021/07/12 10:50:53;;;;;;;109.27;70.83;;;;;;;-144.99;55.29;52154.59;5088382;28;20731;-61
2021/07/12 10:53:34;;;;;;;110.37;70.50;;;;;;;-144.99;54.88;52154.59;5087445;28;20215;-61
2021/07/12 10:56:07;;;;;;;111.13;71.00;;;;;;;-144.99;54.81;52085.31;5088512;28;20221;-61
2021/07/12 10:58:47;;;;;;;111.70;71.27;;;;;;;-144.99;53.35;52093.44;5088311;28;20215;-61
2021/07/12 11:01:37;;;;;;;111.37;70.90;;;;;;;-144.99;52.27;52073.06;5089359;28;20698;-61
2021/07/12 11:04:23;;;;;;;110.43;70.57;;;;;;;-144.99;50.90;52040.47;5087658;28;20204;-61
2021/07/12 11:06:55;;;;;;;108.60;70.47;;;;;;;-144.99;49.61;52048.63;5089221;28;20312;-60
2021/07/12 11:09:48;;;;;;;105.87;69.53;;;;;;;-144.99;49.91;52036.38;5089222;28;20240;-61